Time;durP1;ratioP1;P1;durP2;ratioP2;P2;SDS_P1;SDS_P2;PMS_P1;PMS_P2;Temp;Humidity;BMP_temperature;BMP_pressure;BME280_temperature;BME280_humidity;BME280_pressure;Samples;Min_cycle;Max_cycle;Signal;HPM_P1;HPM_P2
2021/10/16 00:00:35;;;;;;;5.90;4.47;;;8.60;99.90;;;;;;5132320;27;20255;-82
2021/10/16 00:03:02;;;;;;;10.27;4.22;;;8.60;99.90;;;;;;5115215;28;20209;-84
2021/10/16 00:05:30;;;;;;;13.18;5.22;;;8.60;99.90;;;;;;5137272;27;20181;-84
2021/10/16 00:07:57;;;;;;;10.07;3.58;;;8.60;99.90;;;;;;5138962;27;20206;-84
2021/10/16 00:10:24;;;;;;;12.95;5.65;;;8.70;99.90;;;;;;5126882;28;20217;-82
2021/10/16 00:12:58;;;;;;;12.50;5.53;;;8.70;99.90;;;;;;5130202;27;20200;-82
2021/10/16 00:15:28;;;;;;;20.95;5.47;;;8.70;99.90;;;;;;5125027;27;20218;-83
2021/10/16 00:17:57;;;;;;;16.08;5.25;;;8.60;99.90;;;;;;5121385;28;20788;-85
2021/10/16 00:20:24;;;;;;;12.18;4.30;;;8.50;99.90;;;;;;5123088;27;20221;-85
2021/10/16 00:22:52;;;;;;;10.13;4.47;;;8.50;99.90;;;;;;5133730;27;20211;-85
2021/10/16 00:25:19;;;;;;;14.82;4.38;;;8.40;99.90;;;;;;5134299;27;20201;-83
2021/10/16 00:27:46;;;;;;;12.27;4.30;;;8.40;99.90;;;;;;5140735;27;20228;-83
2021/10/16 00:30:16;;;;;;;17.55;4.88;;;8.30;99.90;;;;;;5122041;27;20563;-83
2021/10/16 00:32:46;;;;;;;11.88;4.93;;;8.30;99.90;;;;;;5124578;28;20216;-83
2021/10/16 00:35:13;;;;;;;7.10;3.63;;;8.40;99.90;;;;;;5124533;28;20307;-84
2021/10/16 00:37:41;;;;;;;13.27;4.78;;;8.40;99.90;;;;;;5108682;27;20619;-83
2021/10/16 00:40:09;;;;;;;7.22;3.85;;;8.50;99.90;;;;;;5133369;27;20330;-83
2021/10/16 00:42:44;;;;;;;10.02;4.35;;;8.50;99.90;;;;;;5124290;28;20205;-83
2021/10/16 00:45:11;;;;;;;8.52;3.92;;;8.60;99.90;;;;;;5129574;27;20196;-83
2021/10/16 00:47:39;;;;;;;12.02;4.03;;;8.70;99.90;;;;;;5123269;27;20208;-83
2021/10/16 00:50:08;;;;;;;7.22;4.63;;;8.70;99.90;;;;;;5138697;27;20797;-84
2021/10/16 00:52:46;;;;;;;6.80;4.25;;;8.70;99.90;;;;;;5141198;27;20194;-84
2021/10/16 00:55:15;;;;;;;8.30;3.85;;;8.70;99.90;;;;;;5128391;27;20212;-83
2021/10/16 00:57:43;;;;;;;13.77;4.97;;;8.80;99.90;;;;;;5130968;28;20212;-84
2021/10/16 01:00:12;;;;;;;9.55;4.32;;;8.70;99.90;;;;;;5154023;27;20220;-83
2021/10/16 01:02:39;;;;;;;9.95;4.63;;;8.70;99.90;;;;;;5121245;28;20197;-84
2021/10/16 01:05:09;;;;;;;14.63;4.45;;;8.70;99.90;;;;;;5148003;27;20205;-83
2021/10/16 01:07:37;;;;;;;9.73;4.10;;;8.70;99.90;;;;;;5139205;28;20205;-82
2021/10/16 01:10:06;;;;;;;10.63;4.00;;;8.60;99.90;;;;;;5138955;28;20287;-83
2021/10/16 01:12:36;;;;;;;9.93;5.18;;;8.50;99.90;;;;;;5138882;28;20173;-83
2021/10/16 01:15:05;;;;;;;10.10;4.70;;;8.50;99.90;;;;;;5139019;28;20240;-82
2021/10/16 01:17:33;;;;;;;12.23;5.10;;;8.40;99.90;;;;;;5139282;28;20178;-82
2021/10/16 01:20:07;;;;;;;7.63;4.30;;;8.40;99.90;;;;;;5139087;28;20205;-83
2021/10/16 01:23:07;;;;;;;15.85;5.45;;;8.30;99.90;;;;;;5125927;28;20196;-83
2021/10/16 01:25:56;;;;;;;8.82;5.15;;;8.20;99.90;;;;;;5125674;27;20204;-83
2021/10/16 01:28:49;;;;;;;10.82;5.70;;;8.20;99.90;;;;;;5136671;27;20282;-83
2021/10/16 01:31:49;;;;;;;5.70;4.05;;;8.10;99.90;;;;;;5132077;27;20259;-83
2021/10/16 01:34:16;;;;;;;9.82;5.22;;;8.10;99.90;;;;;;5128945;27;20263;-83
2021/10/16 01:36:52;;;;;;;11.23;5.05;;;8.00;99.90;;;;;;5124257;27;20197;-83
2021/10/16 01:39:36;;;;;;;8.07;4.38;;;8.00;99.90;;;;;;5127662;27;20343;-83
2021/10/16 01:42:18;;;;;;;11.90;5.75;;;8.00;99.90;;;;;;5130187;27;20593;-83
2021/10/16 01:44:45;;;;;;;14.80;5.10;;;8.00;99.90;;;;;;5121808;27;20232;-83
2021/10/16 01:47:18;;;;;;;8.48;4.70;;;8.00;99.90;;;;;;5129559;27;20212;-82
2021/10/16 01:49:45;;;;;;;13.13;6.07;;;8.00;99.90;;;;;;5141366;27;20227;-83
2021/10/16 01:52:12;;;;;;;10.65;5.05;;;8.00;99.90;;;;;;5117904;27;20231;-83
2021/10/16 01:54:41;;;;;;;12.25;4.80;;;8.00;99.90;;;;;;5123984;27;20193;-83
2021/10/16 01:57:15;;;;;;;10.45;4.90;;;8.00;99.90;;;;;;5136837;27;20209;-83
2021/10/16 01:59:42;;;;;;;14.60;6.30;;;8.00;99.90;;;;;;5119394;27;20217;-83
2021/10/16 02:02:09;;;;;;;9.05;5.40;;;8.10;99.90;;;;;;5129852;27;20207;-82
2021/10/16 02:04:36;;;;;;;9.77;4.65;;;7.90;99.90;;;;;;5132324;27;20200;-83
2021/10/16 02:07:12;;;;;;;7.93;6.38;;;8.10;99.90;;;;;;5123573;27;20213;-83
2021/10/16 02:09:42;;;;;;;7.18;3.78;;;8.20;99.90;;;;;;5121365;28;20232;-83
2021/10/16 02:12:09;;;;;;;13.25;5.72;;;8.20;99.90;;;;;;5126243;28;20204;-83
2021/10/16 02:14:36;;;;;;;10.25;4.68;;;8.20;99.90;;;;;;5120402;28;20567;-83
2021/10/16 02:17:03;;;;;;;7.63;4.68;;;8.30;99.90;;;;;;5125799;27;20200;-83
2021/10/16 02:19:51;;;;;;;12.05;5.47;;;8.20;99.90;;;;;;5130575;27;20696;-83
2021/10/16 02:22:18;;;;;;;11.82;5.10;;;8.30;99.90;;;;;;5120557;28;20200;-83
2021/10/16 02:24:55;;;;;;;13.13;5.85;;;8.30;99.90;;;;;;5120473;28;20203;-83
2021/10/16 02:27:23;;;;;;;13.40;3.85;;;8.30;99.90;;;;;;5120685;28;20204;-83
2021/10/16 02:29:50;;;;;;;11.98;3.90;;;8.30;99.90;;;;;;5125146;28;20242;-83
2021/10/16 02:32:19;;;;;;;14.20;5.57;;;8.40;99.90;;;;;;5123730;28;20207;-82
2021/10/16 02:34:53;;;;;;;13.10;4.72;;;8.50;99.90;;;;;;5137707;28;20200;-83
2021/10/16 02:37:23;;;;;;;21.02;6.10;;;8.50;99.90;;;;;;5122031;28;20227;-84
2021/10/16 02:39:56;;;;;;;16.30;6.15;;;8.50;99.90;;;;;;5128333;28;20252;-83
2021/10/16 02:42:23;;;;;;;17.67;5.43;;;8.40;99.90;;;;;;5125394;28;20228;-83
2021/10/16 02:44:50;;;;;;;8.52;4.05;;;8.40;99.90;;;;;;5138953;28;20193;-82
2021/10/16 02:47:53;;;;;;;10.20;6.07;;;8.40;99.90;;;;;;5131306;27;20211;-83
2021/10/16 02:50:22;;;;;;;11.20;4.30;;;8.40;99.90;;;;;;5137271;27;20220;-83
2021/10/16 02:52:49;;;;;;;6.97;4.28;;;8.20;99.90;;;;;;5140561;27;20208;-83
2021/10/16 02:55:17;;;;;;;15.80;4.85;;;8.40;99.90;;;;;;5136398;27;20803;-83
2021/10/16 02:57:50;;;;;;;6.00;3.75;;;8.40;99.90;;;;;;5136653;27;20212;-83
2021/10/16 03:00:18;;;;;;;6.03;4.43;;;8.40;99.90;;;;;;5127035;27;20253;-83
2021/10/16 03:02:45;;;;;;;8.48;4.50;;;8.40;99.90;;;;;;5117812;27;20212;-83
2021/10/16 03:05:21;;;;;;;8.60;5.97;;;8.40;99.90;;;;;;5131077;27;20682;-84
2021/10/16 03:07:48;;;;;;;11.35;4.35;;;8.40;99.90;;;;;;5122992;27;20207;-83
2021/10/16 03:10:16;;;;;;;7.20;5.28;;;8.40;99.90;;;;;;5129058;27;20227;-83
2021/10/16 03:12:56;;;;;;;5.85;4.15;;;8.40;99.90;;;;;;5117727;27;20209;-83
2021/10/16 03:15:37;;;;;;;11.43;5.30;;;8.40;99.90;;;;;;5128532;27;20216;-83
2021/10/16 03:18:09;;;;;;;7.30;4.65;;;8.50;99.90;;;;;;5130006;27;20207;-83
2021/10/16 03:21:15;;;;;;;4.35;3.45;;;8.50;99.90;;;;;;5123993;27;20589;-82
2021/10/16 03:23:42;;;;;;;7.10;4.18;;;8.60;99.90;;;;;;5120168;27;20268;-83
2021/10/16 03:26:11;;;;;;;9.00;3.65;;;8.60;99.90;;;;;;5119580;27;20207;-83
2021/10/16 03:28:38;;;;;;;8.98;3.65;;;8.70;99.90;;;;;;5126561;27;20200;-83
2021/10/16 03:31:08;;;;;;;10.95;5.63;;;8.70;99.90;;;;;;5130033;27;20295;-83
2021/10/16 03:33:35;;;;;;;6.80;4.95;;;8.80;99.90;;;;;;5132301;27;20185;-83
2021/10/16 03:36:02;;;;;;;9.05;4.60;;;8.80;99.90;;;;;;5150444;27;20230;-83
2021/10/16 03:38:36;;;;;;;10.32;4.50;;;8.80;99.90;;;;;;5132477;28;20204;-83
2021/10/16 03:41:03;;;;;;;5.22;4.13;;;8.80;99.90;;;;;;5140173;28;20224;-83
2021/10/16 03:43:32;;;;;;;12.60;4.30;;;8.90;99.90;;;;;;5126786;27;20193;-83
2021/10/16 03:45:59;;;;;;;6.38;3.85;;;8.80;99.90;;;;;;5118826;27;20202;-83
2021/10/16 03:48:26;;;;;;;7.32;3.88;;;8.90;99.90;;;;;;5133060;27;20208;-83
2021/10/16 03:50:56;;;;;;;8.00;4.57;;;8.90;99.90;;;;;;5121962;27;20229;-83
2021/10/16 03:53:26;;;;;;;8.57;4.38;;;8.90;99.90;;;;;;5120093;27;20201;-83
2021/10/16 03:55:56;;;;;;;10.48;5.05;;;9.00;99.90;;;;;;5120357;27;20213;-83
2021/10/16 03:58:23;;;;;;;11.32;5.18;;;9.00;99.90;;;;;;5123266;27;20202;-83
2021/10/16 04:01:24;;;;;;;13.65;6.15;;;8.90;99.90;;;;;;5129717;27;20202;-83
2021/10/16 04:04:27;;;;;;;13.73;4.72;;;9.00;99.90;;;;;;5126054;27;20709;-83
2021/10/16 04:06:54;;;;;;;8.88;4.32;;;8.90;99.90;;;;;;5130980;27;20217;-83
2021/10/16 04:09:21;;;;;;;13.05;5.03;;;8.80;99.90;;;;;;5101339;28;20221;-84
2021/10/16 04:11:54;;;;;;;6.05;4.97;;;8.80;99.90;;;;;;5124105;28;20650;-83
2021/10/16 04:14:21;;;;;;;9.32;4.43;;;8.90;99.90;;;;;;5133061;27;20207;-83
2021/10/16 04:16:51;;;;;;;8.90;5.47;;;8.90;99.90;;;;;;5124608;27;20222;-83
2021/10/16 04:19:18;;;;;;;8.00;5.15;;;8.90;99.90;;;;;;5124539;27;20221;-83
2021/10/16 04:21:49;;;;;;;9.82;4.70;;;8.90;99.90;;;;;;5140228;27;20208;-84
2021/10/16 04:24:16;;;;;;;8.27;4.03;;;9.00;99.90;;;;;;5133066;27;20555;-83
2021/10/16 04:26:43;;;;;;;17.25;4.30;;;9.00;99.90;;;;;;5124362;27;20198;-83
2021/10/16 04:29:11;;;;;;;6.65;4.15;;;8.90;99.90;;;;;;5120369;28;20242;-85
2021/10/16 04:31:38;;;;;;;7.05;5.05;;;9.00;99.90;;;;;;5134073;28;20212;-83
2021/10/16 04:34:09;;;;;;;11.32;5.97;;;9.00;99.90;;;;;;5123658;28;20206;-84
2021/10/16 04:36:36;;;;;;;7.95;4.38;;;9.00;99.90;;;;;;5122362;28;20220;-84
2021/10/16 04:39:04;;;;;;;9.75;6.20;;;9.00;99.90;;;;;;5128366;28;20323;-84
2021/10/16 04:41:32;;;;;;;7.70;4.80;;;8.90;99.90;;;;;;5129639;27;20197;-84
2021/10/16 04:43:59;;;;;;;7.50;5.10;;;8.90;99.90;;;;;;5120940;28;20205;-84
2021/10/16 04:46:27;;;;;;;10.55;5.82;;;8.90;99.90;;;;;;5137423;27;20207;-84
2021/10/16 04:48:54;;;;;;;8.52;4.55;;;8.80;99.90;;;;;;5129907;27;20600;-84
2021/10/16 04:51:22;;;;;;;10.30;7.07;;;8.80;99.90;;;;;;5126341;27;20802;-84
2021/10/16 04:53:49;;;;;;;8.85;4.40;;;8.80;99.90;;;;;;5122749;27;20201;-84
2021/10/16 04:56:18;;;;;;;7.55;5.13;;;8.70;99.90;;;;;;5143844;27;20591;-84
2021/10/16 04:58:53;;;;;;;10.52;4.63;;;8.70;99.90;;;;;;5128098;27;20228;-84
2021/10/16 05:01:26;;;;;;;9.43;4.90;;;8.70;99.90;;;;;;5134085;27;20206;-84
2021/10/16 05:03:54;;;;;;;6.07;4.90;;;8.70;99.90;;;;;;5130660;27;20215;-84
2021/10/16 05:06:23;;;;;;;7.93;5.45;;;8.70;99.90;;;;;;5125569;27;20185;-85
2021/10/16 05:08:50;;;;;;;8.38;5.03;;;8.70;99.90;;;;;;5118528;28;20241;-84
2021/10/16 05:11:17;;;;;;;13.23;4.85;;;8.70;99.90;;;;;;5121782;27;20201;-84
2021/10/16 05:13:44;;;;;;;15.68;5.90;;;8.60;99.90;;;;;;5117985;27;20286;-84
2021/10/16 05:16:20;;;;;;;12.70;5.72;;;8.60;99.90;;;;;;5113098;28;20239;-84
2021/10/16 05:18:57;;;;;;;13.15;5.75;;;8.60;99.90;;;;;;5134252;27;20224;-84
2021/10/16 05:21:53;;;;;;;12.52;4.80;;;8.60;99.90;;;;;;5124907;27;20205;-84
2021/10/16 05:24:23;;;;;;;10.50;5.28;;;8.60;99.90;;;;;;5117202;27;20676;-84
2021/10/16 05:26:51;;;;;;;10.35;5.78;;;8.60;99.90;;;;;;5119152;27;20203;-84
2021/10/16 05:29:18;;;;;;;10.15;4.63;;;8.60;99.90;;;;;;5128150;27;20736;-84
2021/10/16 05:31:45;;;;;;;8.13;5.07;;;8.60;99.90;;;;;;5109697;27;20197;-84
2021/10/16 05:34:26;;;;;;;13.82;5.70;;;8.60;99.90;;;;;;5108155;27;20205;-83
2021/10/16 05:40:24;;;;;;;10.02;5.30;;;8.60;99.90;;;;;;5105558;27;20213;-83
2021/10/16 05:42:57;;;;;;;10.35;5.32;;;8.60;99.90;;;;;;5122783;28;20192;-83
2021/10/16 05:45:30;;;;;;;8.38;5.57;;;8.60;99.90;;;;;;5115032;28;20209;-84
2021/10/16 05:47:57;;;;;;;9.90;4.80;;;8.70;99.90;;;;;;5120397;27;20206;-83
2021/10/16 05:50:24;;;;;;;10.07;5.50;;;8.70;99.90;;;;;;5117970;28;20225;-83
2021/10/16 05:52:54;;;;;;;12.02;5.60;;;8.70;99.90;;;;;;5120521;27;20208;-84
2021/10/16 05:55:21;;;;;;;9.57;6.10;;;8.70;99.90;;;;;;5120430;28;20200;-84
2021/10/16 05:57:50;;;;;;;8.48;5.10;;;8.70;99.90;;;;;;5121195;28;20224;-83
2021/10/16 06:00:18;;;;;;;9.80;4.80;;;8.70;99.90;;;;;;5123033;28;20225;-84
2021/10/16 06:02:45;;;;;;;11.30;4.30;;;8.70;99.90;;;;;;5129005;27;20637;-84
2021/10/16 06:05:12;;;;;;;14.52;5.32;;;8.70;99.90;;;;;;5115481;27;20228;-84
2021/10/16 06:07:39;;;;;;;10.32;5.57;;;8.70;99.90;;;;;;5138100;27;20201;-84
2021/10/16 06:10:08;;;;;;;8.50;4.70;;;8.80;99.90;;;;;;5132570;27;20264;-84
2021/10/16 06:12:35;;;;;;;10.48;5.20;;;8.90;99.90;;;;;;5125411;27;20197;-84
2021/10/16 06:15:04;;;;;;;9.00;5.10;;;8.90;99.90;;;;;;5125875;27;20269;-84
2021/10/16 06:17:31;;;;;;;6.95;4.40;;;9.00;99.90;;;;;;5137475;27;20220;-84
2021/10/16 06:19:58;;;;;;;7.40;4.40;;;9.00;99.90;;;;;;5133882;27;20223;-84
2021/10/16 06:22:25;;;;;;;8.25;4.45;;;9.00;99.90;;;;;;5135747;27;20654;-85
2021/10/16 06:24:52;;;;;;;11.95;4.53;;;9.00;99.90;;;;;;5124127;28;20272;-84
2021/10/16 06:27:20;;;;;;;8.30;4.18;;;9.00;99.90;;;;;;5124020;28;20197;-85
2021/10/16 06:29:47;;;;;;;5.88;4.00;;;9.00;99.90;;;;;;5134122;28;20247;-84
2021/10/16 06:32:16;;;;;;;7.05;3.95;;;9.00;99.90;;;;;;5136829;28;20634;-85
2021/10/16 06:34:43;;;;;;;8.95;5.30;;;9.10;99.90;;;;;;5132156;28;20189;-84
2021/10/16 06:37:10;;;;;;;9.02;3.75;;;9.10;99.90;;;;;;5126026;28;20233;-85
2021/10/16 06:39:37;;;;;;;6.30;4.10;;;9.20;99.90;;;;;;5120188;28;20210;-85
2021/10/16 06:42:05;;;;;;;7.70;3.45;;;9.20;99.90;;;;;;5121140;28;20573;-83
2021/10/16 06:44:32;;;;;;;10.60;3.25;;;9.30;99.90;;;;;;5129671;28;20198;-85
2021/10/16 06:46:59;;;;;;;11.88;3.90;;;9.30;99.90;;;;;;5133528;27;20265;-84
2021/10/16 06:49:27;;;;;;;7.95;3.58;;;9.40;99.90;;;;;;5123779;28;20233;-84
2021/10/16 06:51:55;;;;;;;15.38;4.65;;;9.40;99.90;;;;;;5125180;28;20196;-84
2021/10/16 06:54:22;;;;;;;12.35;3.60;;;9.40;99.90;;;;;;5130252;28;20228;-85
2021/10/16 06:56:49;;;;;;;7.32;3.38;;;9.40;99.90;;;;;;5133269;28;20224;-84
2021/10/16 06:59:16;;;;;;;14.82;3.88;;;9.50;99.90;;;;;;5134831;28;20208;-85
2021/10/16 07:01:43;;;;;;;6.80;3.80;;;9.50;99.90;;;;;;5131439;28;20201;-84
2021/10/16 07:04:10;;;;;;;5.90;4.22;;;9.60;99.90;;;;;;5132595;28;20211;-84
2021/10/16 07:06:40;;;;;;;6.65;3.53;;;9.70;99.90;;;;;;5133225;28;20200;-85
2021/10/16 07:14:47;;;;;;;9.55;3.45;;;9.90;99.90;;;;;;5116478;28;20198;-85
2021/10/16 07:17:33;;;;;;;13.90;3.60;;;10.00;99.90;;;;;;5128806;28;20922;-84
2021/10/16 07:20:31;;;;;;;5.13;3.50;;;10.10;99.90;;;;;;5130167;28;20237;-85
2021/10/16 07:23:02;;;;;;;6.38;3.67;;;10.10;99.90;;;;;;5127241;28;20278;-85
2021/10/16 07:25:29;;;;;;;4.35;3.03;;;10.20;99.90;;;;;;5143579;28;20182;-84
2021/10/16 07:27:56;;;;;;;9.18;3.47;;;10.20;99.90;;;;;;5137255;28;20200;-84
2021/10/16 07:30:23;;;;;;;6.50;3.78;;;10.30;99.90;;;;;;5143607;28;20206;-84
2021/10/16 07:32:50;;;;;;;6.15;3.05;;;10.30;99.90;;;;;;5132322;27;20239;-85
2021/10/16 07:35:17;;;;;;;4.70;3.13;;;10.30;99.90;;;;;;5130809;27;20232;-85
2021/10/16 07:37:45;;;;;;;7.95;3.20;;;10.30;99.90;;;;;;5137199;27;20226;-85
2021/10/16 07:40:13;;;;;;;7.18;3.88;;;10.40;99.90;;;;;;5135522;27;20225;-85
2021/10/16 07:42:41;;;;;;;14.88;4.30;;;10.40;99.90;;;;;;5137977;27;20228;-85
2021/10/16 07:45:10;;;;;;;8.45;4.00;;;10.30;99.90;;;;;;5134218;27;20197;-85
2021/10/16 07:47:38;;;;;;;8.93;3.78;;;10.30;99.90;;;;;;5149010;27;20243;-83
2021/10/16 07:50:06;;;;;;;8.10;3.30;;;10.40;99.90;;;;;;5143695;27;20210;-84
2021/10/16 07:52:33;;;;;;;8.85;4.32;;;10.40;99.90;;;;;;5142808;27;20198;-84
2021/10/16 07:55:00;;;;;;;10.82;3.67;;;10.40;99.90;;;;;;5142732;27;20227;-83
2021/10/16 07:57:29;;;;;;;8.38;3.92;;;10.50;99.90;;;;;;5133010;28;20317;-83
2021/10/16 07:59:56;;;;;;;8.23;3.28;;;10.50;99.90;;;;;;5136180;27;20220;-83
2021/10/16 08:02:23;;;;;;;8.63;3.60;;;10.50;99.90;;;;;;5139345;28;20186;-85
2021/10/16 08:04:50;;;;;;;7.25;3.53;;;10.50;99.90;;;;;;5140381;28;20185;-85
2021/10/16 08:07:18;;;;;;;10.43;4.13;;;10.60;99.90;;;;;;5152674;27;20253;-84
2021/10/16 08:09:47;;;;;;;8.38;3.58;;;10.50;99.90;;;;;;5143648;27;20209;-84
2021/10/16 08:12:14;;;;;;;10.80;3.97;;;10.50;99.90;;;;;;5138529;28;20226;-83
2021/10/16 08:14:43;;;;;;;4.60;3.60;;;10.60;99.90;;;;;;5132836;28;20197;-84
2021/10/16 08:17:11;;;;;;;7.70;3.47;;;10.60;99.90;;;;;;5134082;28;20289;-84
2021/10/16 08:19:38;;;;;;;7.07;3.72;;;10.60;99.90;;;;;;5139481;28;20206;-84
2021/10/16 08:22:06;;;;;;;14.75;5.40;;;10.70;99.90;;;;;;5155647;27;20253;-84
2021/10/16 08:24:33;;;;;;;6.22;3.17;;;10.70;99.90;;;;;;5139536;28;20181;-84
2021/10/16 08:27:00;;;;;;;10.52;3.28;;;10.70;99.90;;;;;;5137199;28;20204;-83
2021/10/16 08:29:27;;;;;;;5.13;3.45;;;10.80;99.90;;;;;;5137215;27;20221;-84
2021/10/16 08:31:58;;;;;;;10.68;3.78;;;10.80;99.90;;;;;;5126868;27;20285;-84
2021/10/16 08:34:26;;;;;;;7.90;3.33;;;10.90;99.90;;;;;;5130448;27;20211;-84
2021/10/16 08:36:53;;;;;;;7.80;3.53;;;10.90;99.90;;;;;;5127412;27;20682;-84
2021/10/16 08:39:23;;;;;;;7.10;3.42;;;11.10;99.90;;;;;;5124007;27;20219;-84
2021/10/16 08:41:51;;;;;;;11.23;3.92;;;11.20;99.90;;;;;;5128532;27;20198;-85
2021/10/16 08:44:19;;;;;;;7.28;3.40;;;11.20;99.90;;;;;;5124709;27;20210;-84
2021/10/16 08:46:46;;;;;;;9.10;5.22;;;11.30;99.90;;;;;;5124948;27;20553;-84
2021/10/16 08:49:16;;;;;;;8.70;3.20;;;11.30;99.90;;;;;;5121715;27;20235;-84
2021/10/16 08:51:44;;;;;;;6.20;3.35;;;11.40;99.90;;;;;;5130881;27;20193;-84
2021/10/16 08:54:11;;;;;;;15.45;3.97;;;11.40;99.90;;;;;;5120315;27;20225;-84
2021/10/16 08:56:38;;;;;;;8.68;3.22;;;11.40;99.90;;;;;;5125198;27;20210;-84
2021/10/16 08:59:05;;;;;;;9.40;4.53;;;11.50;99.90;;;;;;5135873;27;20225;-84
2021/10/16 09:01:33;;;;;;;9.55;4.40;;;11.60;99.90;;;;;;5134392;27;20193;-84
2021/10/16 09:04:00;;;;;;;7.15;3.67;;;11.70;99.90;;;;;;5129617;27;20227;-85
2021/10/16 09:06:30;;;;;;;7.28;3.13;;;11.80;99.90;;;;;;5128613;28;20272;-84
2021/10/16 09:09:00;;;;;;;4.82;3.40;;;11.90;99.90;;;;;;5153932;27;20220;-83
2021/10/16 09:11:29;;;;;;;7.55;3.15;;;12.10;99.90;;;;;;5130518;27;20214;-84
2021/10/16 09:14:03;;;;;;;10.48;2.80;;;12.20;99.90;;;;;;5131438;27;20209;-84
2021/10/16 09:16:33;;;;;;;10.02;3.55;;;12.40;99.90;;;;;;5119033;28;20196;-84
2021/10/16 09:19:05;;;;;;;7.72;4.30;;;12.50;99.90;;;;;;5131416;27;20214;-84
2021/10/16 09:21:34;;;;;;;7.75;3.78;;;12.50;99.90;;;;;;5128478;27;20195;-84
2021/10/16 09:24:13;;;;;;;11.25;3.28;;;12.50;99.90;;;;;;5129468;28;20283;-83
2021/10/16 09:26:43;;;;;;;6.32;3.85;;;12.70;99.90;;;;;;5136535;28;20241;-83
2021/10/16 09:29:13;;;;;;;10.38;3.35;;;12.90;99.90;;;;;;5138620;27;20302;-83
2021/10/16 09:31:42;;;;;;;8.45;3.70;;;12.90;99.90;;;;;;5147194;27;20219;-83
2021/10/16 09:34:10;;;;;;;4.22;3.22;;;13.00;99.90;;;;;;5131433;27;20196;-84
2021/10/16 09:36:41;;;;;;;4.72;2.25;;;13.20;99.90;;;;;;5128190;27;20206;-84
2021/10/16 09:39:15;;;;;;;9.27;3.40;;;13.30;99.90;;;;;;5127440;27;20224;-84
2021/10/16 09:41:42;;;;;;;5.90;3.47;;;13.60;99.90;;;;;;5115541;27;20203;-84
2021/10/16 09:44:24;;;;;;;8.80;4.57;;;13.70;99.90;;;;;;5139854;27;20199;-84
2021/10/16 09:47:06;;;;;;;9.93;3.45;;;13.90;99.90;;;;;;5128040;27;20207;-85
2021/10/16 09:49:36;;;;;;;4.35;2.97;;;13.90;99.90;;;;;;5141335;27;20641;-84
2021/10/16 09:52:06;;;;;;;5.88;3.40;;;13.90;99.90;;;;;;5127134;27;20213;-84
2021/10/16 09:54:35;;;;;;;6.93;3.70;;;13.90;99.90;;;;;;5124588;28;20619;-84
2021/10/16 09:57:06;;;;;;;3.92;2.25;;;13.90;99.90;;;;;;5136300;27;20250;-83
2021/10/16 09:59:34;;;;;;;19.52;3.58;;;14.00;99.90;;;;;;5119751;28;20221;-84
2021/10/16 10:02:02;;;;;;;6.30;3.22;;;13.90;99.90;;;;;;5133501;27;20208;-84
2021/10/16 10:04:32;;;;;;;4.00;3.30;;;14.00;99.90;;;;;;5140762;27;20220;-84
2021/10/16 10:07:01;;;;;;;5.60;2.75;;;14.10;99.90;;;;;;5135356;27;20280;-84
2021/10/16 10:09:30;;;;;;;6.95;2.75;;;14.00;99.90;;;;;;5129879;27;20221;-84
2021/10/16 10:11:57;;;;;;;5.35;2.75;;;14.00;99.90;;;;;;5131039;27;20281;-84
2021/10/16 10:14:25;;;;;;;5.25;2.85;;;13.90;99.90;;;;;;5129420;27;20283;-84
2021/10/16 10:16:54;;;;;;;10.55;3.50;;;13.80;99.90;;;;;;5122715;28;20626;-84
2021/10/16 10:19:22;;;;;;;7.85;2.38;;;13.80;99.90;;;;;;5111719;28;20248;-84
2021/10/16 10:21:50;;;;;;;8.52;2.10;;;13.70;99.90;;;;;;5129498;27;20201;-84
2021/10/16 10:24:18;;;;;;;8.05;4.30;;;13.90;99.90;;;;;;5127457;27;20212;-84
2021/10/16 10:26:47;;;;;;;3.30;1.90;;;14.00;99.90;;;;;;5128277;28;20585;-84
2021/10/16 10:29:17;;;;;;;6.25;2.50;;;13.90;99.90;;;;;;5124968;28;20221;-84
2021/10/16 10:32:00;;;;;;;3.58;1.98;;;13.90;99.90;;;;;;5122876;28;20645;-84
2021/10/16 10:34:30;;;;;;;8.98;3.20;;;13.90;99.90;;;;;;5126353;28;20257;-84
2021/10/16 10:37:01;;;;;;;5.43;2.85;;;13.80;99.90;;;;;;5136466;28;20203;-84
2021/10/16 10:39:46;;;;;;;12.57;3.45;;;13.90;99.90;;;;;;5124129;28;20227;-84
2021/10/16 10:42:55;;;;;;;7.20;2.65;;;14.00;99.90;;;;;;5121346;28;20200;-86
2021/10/16 10:45:35;;;;;;;6.95;3.05;;;14.00;99.90;;;;;;5132942;28;20204;-84
2021/10/16 10:48:17;;;;;;;4.25;3.40;;;14.00;99.90;;;;;;5129486;28;20197;-84
2021/10/16 10:50:57;;;;;;;5.47;2.90;;;14.00;99.90;;;;;;5131216;28;20289;-84
2021/10/16 10:53:30;;;;;;;6.78;3.10;;;13.90;99.90;;;;;;5132435;28;20201;-84
2021/10/16 10:55:59;;;;;;;3.58;2.20;;;14.10;99.90;;;;;;5127998;28;20193;-84
2021/10/16 10:59:00;;;;;;;6.00;2.60;;;14.10;99.90;;;;;;5123613;28;20267;-84
2021/10/16 11:02:01;;;;;;;5.05;2.10;;;14.10;99.90;;;;;;5136102;28;20205;-84
2021/10/16 11:04:54;;;;;;;9.38;2.70;;;14.10;99.90;;;;;;5121650;28;20193;-84
2021/10/16 11:07:39;;;;;;;7.18;3.10;;;14.10;99.90;;;;;;5144825;27;20256;-83
2021/10/16 11:10:07;;;;;;;5.05;1.98;;;14.00;99.90;;;;;;5131897;27;20210;-84
2021/10/16 11:12:37;;;;;;;15.70;3.22;;;14.10;99.90;;;;;;5139297;27;20317;-84
2021/10/16 11:15:06;;;;;;;5.05;2.15;;;13.90;99.90;;;;;;5137394;27;20265;-85
2021/10/16 11:17:37;;;;;;;5.72;2.70;;;14.00;99.90;;;;;;5138945;27;20235;-86
2021/10/16 11:20:06;;;;;;;5.15;1.65;;;13.90;99.90;;;;;;5141571;27;20277;-84
2021/10/16 11:22:56;;;;;;;5.43;1.95;;;13.90;99.90;;;;;;5136080;27;20193;-84
2021/10/16 11:25:25;;;;;;;5.13;2.08;;;13.80;99.90;;;;;;5119367;28;20225;-85
2021/10/16 11:28:07;;;;;;;4.50;2.42;;;13.80;99.90;;;;;;5137269;27;20219;-84
2021/10/16 11:30:36;;;;;;;7.13;4.82;;;13.80;99.90;;;;;;5131801;27;20208;-84
2021/10/16 11:33:08;;;;;;;8.07;3.42;;;13.70;99.90;;;;;;5139471;27;20315;-84
2021/10/16 11:35:36;;;;;;;6.95;2.85;;;13.50;99.90;;;;;;5130183;28;20208;-83
2021/10/16 11:38:03;;;;;;;8.73;2.40;;;13.50;99.90;;;;;;5141629;27;20228;-84
2021/10/16 11:40:32;;;;;;;7.75;3.00;;;13.40;99.90;;;;;;5140460;27;20248;-84
2021/10/16 11:43:01;;;;;;;9.40;4.18;;;13.40;99.90;;;;;;5130974;27;20205;-84
2021/10/16 11:45:31;;;;;;;8.63;2.65;;;13.50;99.90;;;;;;5122435;27;20209;-85
2021/10/16 11:48:00;;;;;;;9.35;2.33;;;13.40;99.90;;;;;;5136121;27;20191;-83
2021/10/16 11:50:30;;;;;;;7.85;2.35;;;13.30;99.90;;;;;;5144258;27;20333;-84
2021/10/16 11:53:08;;;;;;;8.25;2.75;;;13.30;99.90;;;;;;5140386;27;20227;-83
2021/10/16 11:55:35;;;;;;;6.32;2.42;;;13.30;99.90;;;;;;5135343;27;20201;-84
2021/10/16 11:58:04;;;;;;;5.13;1.65;;;13.40;99.90;;;;;;5139709;27;20220;-84
2021/10/16 12:00:32;;;;;;;5.28;2.55;;;13.40;99.90;;;;;;5131389;28;20278;-84
2021/10/16 12:03:00;;;;;;;5.65;2.45;;;13.40;99.90;;;;;;5132979;28;20203;-84
2021/10/16 12:05:29;;;;;;;5.93;2.72;;;13.40;99.90;;;;;;5139997;27;20223;-84
2021/10/16 12:07:57;;;;;;;9.35;2.60;;;13.60;99.90;;;;;;5151798;27;20257;-84
2021/10/16 12:10:29;;;;;;;3.38;2.35;;;13.60;99.90;;;;;;5135388;27;20280;-84
2021/10/16 12:13:05;;;;;;;13.45;2.42;;;13.60;99.90;;;;;;5130813;27;20228;-84
2021/10/16 12:15:44;;;;;;;4.55;2.30;;;13.60;99.90;;;;;;5135006;27;20184;-85
2021/10/16 12:18:19;;;;;;;8.05;2.00;;;13.40;99.90;;;;;;5143841;27;20227;-84
2021/10/16 12:20:50;;;;;;;6.40;2.35;;;13.40;99.90;;;;;;5145365;27;20276;-84
2021/10/16 12:23:18;;;;;;;7.70;2.97;;;13.50;99.90;;;;;;5138068;28;20188;-84
2021/10/16 12:25:47;;;;;;;3.05;2.03;;;13.50;99.90;;;;;;5140048;27;20190;-84
2021/10/16 12:28:15;;;;;;;5.47;2.85;;;13.50;99.90;;;;;;5138551;28;20205;-84
2021/10/16 12:31:03;;;;;;;7.63;1.95;;;13.40;99.90;;;;;;5138605;28;20212;-85
2021/10/16 12:33:30;;;;;;;7.90;2.65;;;13.60;99.90;;;;;;5142886;27;20206;-84
2021/10/16 12:36:03;;;;;;;8.25;2.20;;;13.40;99.90;;;;;;5138580;28;20253;-84
2021/10/16 12:38:47;;;;;;;10.20;2.60;;;13.40;99.90;;;;;;5126414;28;20240;-85
2021/10/16 12:41:33;;;;;;;3.63;1.73;;;13.50;99.90;;;;;;5136680;28;20244;-85
2021/10/16 12:44:13;;;;;;;6.07;2.33;;;13.30;99.90;;;;;;5148048;27;20189;-84
2021/10/16 12:46:41;;;;;;;6.40;2.22;;;13.50;99.90;;;;;;5135554;28;20257;-85
2021/10/16 12:49:10;;;;;;;4.80;2.75;;;13.50;99.90;;;;;;5134141;28;20239;-85
2021/10/16 12:51:42;;;;;;;11.50;3.42;;;13.50;99.90;;;;;;5136642;28;20209;-85
2021/10/16 12:54:09;;;;;;;7.65;3.03;;;13.70;99.90;;;;;;5147768;27;20200;-85
2021/10/16 12:56:37;;;;;;;4.05;2.60;;;13.70;99.90;;;;;;5141341;27;20271;-84
2021/10/16 12:59:04;;;;;;;3.88;2.58;;;13.80;99.90;;;;;;5137928;27;20225;-84
2021/10/16 13:01:32;;;;;;;6.60;2.65;;;13.90;99.90;;;;;;5134825;28;20637;-84
2021/10/16 13:04:00;;;;;;;6.57;4.43;;;14.10;99.90;;;;;;5136215;28;20216;-84
2021/10/16 13:06:27;;;;;;;4.95;2.15;;;14.10;99.90;;;;;;5142795;27;20207;-84
2021/10/16 13:08:56;;;;;;;6.18;2.20;;;14.20;99.90;;;;;;5129291;27;20317;-84
2021/10/16 13:11:23;;;;;;;3.60;2.22;;;14.20;99.90;;;;;;5140830;27;20573;-83
2021/10/16 13:13:50;;;;;;;4.00;2.00;;;14.20;99.90;;;;;;5137467;28;20193;-84
2021/10/16 13:16:17;;;;;;;9.10;1.85;;;14.20;99.90;;;;;;5138692;28;20189;-83